createdAt,value
2022-08-05T00:01:36.160Z,96735.69
2022-08-05T00:04:15.308Z,96749.88
2022-08-05T00:06:43.043Z,96707.75
2022-08-05T00:09:13.188Z,96738.88
2022-08-05T00:11:49.404Z,96704.75
2022-08-05T00:14:22.375Z,96742.63
2022-08-05T00:16:54.561Z,96709.88
2022-08-05T00:19:22.661Z,96711.47
2022-08-05T00:21:50.152Z,96752.69
2022-08-05T00:24:24.106Z,96717.19
2022-08-05T00:26:52.847Z,96725.41
2022-08-05T00:29:25.658Z,96732.91
2022-08-05T00:32:10.942Z,96714.41
2022-08-05T00:34:43.361Z,96727.16
2022-08-05T00:37:35.414Z,96724.88
2022-08-05T00:40:17.763Z,96716.50
2022-08-05T00:42:54.399Z,96708.91
2022-08-05T00:45:28.120Z,96723.88
2022-08-05T00:48:05.291Z,96710.22
2022-08-05T00:50:32.587Z,96702.50
2022-08-05T00:52:59.590Z,96702.88
2022-08-05T00:55:42.624Z,96716.91
2022-08-05T00:58:13.610Z,96724.44
2022-08-05T01:00:40.418Z,96706.81
2022-08-05T01:03:08.894Z,96719.53
2022-08-05T01:05:35.857Z,96720.25
2022-08-05T01:08:40.148Z,96713.63
2022-08-05T01:10:59.745Z,96704.84
2022-08-05T01:14:27.818Z,96707.16
2022-08-05T01:17:10.980Z,96691.66
2022-08-05T01:20:00.770Z,96714.50
2022-08-05T01:22:35.747Z,96702.03
2022-08-05T01:25:40.356Z,96710.00
2022-08-05T01:28:11.282Z,96692.06
2022-08-05T01:30:53.858Z,96713.66
2022-08-05T01:33:25.200Z,96698.88
2022-08-05T01:35:53.527Z,96709.47
2022-08-05T01:38:27.101Z,96735.69
2022-08-05T01:40:58.144Z,96703.34
2022-08-05T01:43:24.833Z,96699.81
2022-08-05T01:45:56.192Z,96699.06
2022-08-05T01:48:25.105Z,96705.84
2022-08-05T01:50:51.823Z,96716.41
2022-08-05T01:53:37.350Z,96696.56
2022-08-05T01:56:05.380Z,96689.53
2022-08-05T01:58:40.812Z,96676.38
2022-08-05T02:01:12.633Z,96697.13
2022-08-05T02:03:42.408Z,96689.16
2022-08-05T02:06:33.844Z,96716.91
2022-08-05T02:08:58.838Z,96694.06
2022-08-05T02:11:33.210Z,96696.59
2022-08-05T02:14:03.133Z,96694.50
2022-08-05T02:16:34.865Z,96699.84
2022-08-05T02:19:27.663Z,96697.00
2022-08-05T02:21:59.046Z,96683.84
2022-08-05T02:24:28.214Z,96708.63
2022-08-05T02:26:56.917Z,96690.13
2022-08-05T02:29:59.135Z,96701.47
2022-08-05T02:32:11.635Z,96696.84
2022-08-05T02:34:46.432Z,96675.50
2022-08-05T02:37:22.041Z,96697.63
2022-08-05T02:39:51.735Z,96722.56
2022-08-05T02:42:25.996Z,96731.88
2022-08-05T02:44:54.165Z,96694.88
2022-08-05T02:47:21.425Z,96692.72
2022-08-05T02:49:48.147Z,96727.34
2022-08-05T02:52:25.985Z,96705.31
2022-08-05T02:55:01.991Z,96703.16
2022-08-05T02:58:09.415Z,96717.44
2022-08-05T03:00:18.746Z,96695.22
2022-08-05T03:02:45.420Z,96705.66
2022-08-05T03:05:12.237Z,96693.53
2022-08-05T03:08:01.007Z,96703.94
2022-08-05T03:10:26.091Z,96702.13
2022-08-05T03:12:53.021Z,96698.16
2022-08-05T03:15:20.222Z,96684.56
2022-08-05T03:17:46.947Z,96665.84
2022-08-05T03:20:13.902Z,96675.91
2022-08-05T03:22:44.070Z,96656.31
2022-08-05T03:25:32.612Z,96674.91
2022-08-05T03:28:01.506Z,96704.38
2022-08-05T03:30:33.698Z,96674.56
2022-08-05T03:33:01.855Z,96665.75
2022-08-05T03:35:28.854Z,96677.84
2022-08-05T03:37:59.300Z,96650.56
2022-08-05T03:40:31.952Z,96667.09
2022-08-05T03:42:59.530Z,96672.66
2022-08-05T03:45:57.188Z,96678.44
2022-08-05T03:48:29.107Z,96673.91
2022-08-05T03:52:38.875Z,96670.13
2022-08-05T03:55:51.843Z,96678.06
2022-08-05T03:56:58.975Z,96674.41
2022-08-05T03:59:46.960Z,96645.53
2022-08-05T04:02:38.271Z,96645.88
2022-08-05T04:05:04.707Z,96677.06
2022-08-05T04:07:36.829Z,96668.53
2022-08-05T04:10:23.526Z,96660.06
2022-08-05T04:12:54.292Z,96675.59
2022-08-05T04:15:24.539Z,96680.00
2022-08-05T04:17:57.198Z,96649.88
2022-08-05T04:20:24.280Z,96675.72
2022-08-05T04:22:50.935Z,96683.31
2022-08-05T04:25:17.778Z,96660.88
2022-08-05T04:27:57.613Z,96672.19
2022-08-05T04:30:26.622Z,96675.47
2022-08-05T04:32:53.407Z,96676.28
2022-08-05T04:35:20.170Z,96666.09
2022-08-05T04:38:01.091Z,96694.75
2022-08-05T04:40:32.817Z,96700.22
2022-08-05T04:42:59.535Z,96690.66
2022-08-05T04:45:48.351Z,96687.03
2022-08-05T04:48:18.592Z,96682.84
2022-08-05T04:51:03.674Z,96661.31
2022-08-05T04:53:38.888Z,96677.22
2022-08-05T04:56:15.441Z,96690.81
2022-08-05T04:58:55.807Z,96692.06
2022-08-05T05:02:05.470Z,96709.28
2022-08-05T05:04:09.758Z,96694.88
2022-08-05T05:06:42.284Z,96689.13
2022-08-05T05:09:14.129Z,96676.41
2022-08-05T05:11:55.596Z,96684.47
2022-08-05T05:14:28.128Z,96693.28
2022-08-05T05:16:59.438Z,96697.47
2022-08-05T05:19:26.629Z,96716.91
2022-08-05T05:22:22.967Z,96704.28
2022-08-05T05:24:57.470Z,96710.53
2022-08-05T05:27:45.221Z,96696.69
2022-08-05T05:30:28.713Z,96711.66
2022-08-05T05:32:57.068Z,96680.75
2022-08-05T05:35:29.051Z,96706.84
2022-08-05T05:38:02.455Z,96695.84
2022-08-05T05:40:29.894Z,96698.75
2022-08-05T05:42:57.099Z,96703.28
2022-08-05T05:45:24.559Z,96712.28
2022-08-05T05:48:06.762Z,96723.69
2022-08-05T05:50:35.661Z,96741.84
2022-08-05T05:53:22.518Z,96750.94
2022-08-05T05:55:51.980Z,96745.88
2022-08-05T05:58:31.926Z,96739.13
2022-08-05T06:01:02.199Z,96740.78
2022-08-05T06:04:02.121Z,96742.50
2022-08-05T06:06:34.708Z,96755.50
2022-08-05T06:09:03.227Z,96763.94
2022-08-05T06:11:31.823Z,96759.56
2022-08-05T06:14:00.391Z,96742.06
2022-08-05T06:16:32.878Z,96737.56
2022-08-05T06:19:05.653Z,96733.59
2022-08-05T06:21:36.949Z,96762.53
2022-08-05T06:24:12.193Z,96741.19
2022-08-05T06:26:51.464Z,96752.28
2022-08-05T06:29:25.146Z,96725.00
2022-08-05T06:32:24.792Z,96729.75
2022-08-05T06:34:53.485Z,96723.94
2022-08-05T06:37:55.603Z,96704.81
2022-08-05T06:40:10.511Z,96697.94
2022-08-05T06:42:39.867Z,96721.19
2022-08-05T06:45:08.838Z,96737.69
2022-08-05T06:48:37.044Z,96781.28
2022-08-05T06:50:23.716Z,96736.75
2022-08-05T06:53:03.465Z,96722.53
2022-08-05T06:55:37.480Z,96718.56
2022-08-05T06:58:19.925Z,96714.44
2022-08-05T07:00:59.842Z,96715.53
2022-08-05T07:03:34.766Z,96737.06
2022-08-05T07:09:40.478Z,96767.94
2022-08-05T07:12:17.490Z,96722.63
2022-08-05T07:14:54.081Z,96742.31
2022-08-05T07:18:29.176Z,96739.19
2022-08-05T07:22:00.585Z,96729.06
2022-08-05T07:43:33.301Z,96744.41
2022-08-05T07:46:01.653Z,96736.19
2022-08-05T07:49:00.650Z,96735.78
2022-08-05T07:51:23.355Z,96750.22
2022-08-05T07:54:02.833Z,96756.16
2022-08-05T07:56:59.911Z,96779.38
2022-08-05T07:59:17.268Z,96778.22
2022-08-05T08:01:57.644Z,96792.22
2022-08-05T08:07:59.114Z,96805.44
2022-08-05T08:10:27.434Z,96857.09
2022-08-05T08:12:54.024Z,96813.09
2022-08-05T08:15:37.219Z,96815.81
2022-08-05T08:18:14.315Z,96838.22
2022-08-05T08:21:00.108Z,96787.72
2022-08-05T08:24:01.279Z,96817.44
2022-08-05T08:26:14.955Z,96851.66
2022-08-05T08:28:59.628Z,96812.59
2022-08-05T08:31:28.280Z,96810.09
2022-08-05T08:33:59.652Z,96810.84
2022-08-05T08:36:38.778Z,96837.00
2022-08-05T08:39:15.351Z,96827.53
2022-08-05T08:42:34.445Z,96833.03
2022-08-05T08:45:23.263Z,96860.13
2022-08-05T08:48:06.146Z,96843.53
2022-08-05T08:51:03.700Z,96812.13
2022-08-05T08:53:45.234Z,96813.34
2022-08-05T08:56:12.524Z,96824.63
2022-08-05T08:58:48.009Z,96824.50
2022-08-05T09:01:57.492Z,96825.03
2022-08-05T09:05:38.913Z,96826.78
2022-08-05T09:08:03.418Z,96824.16
2022-08-05T09:10:32.219Z,96816.94
2022-08-05T09:13:04.523Z,96805.34
2022-08-05T09:15:32.130Z,96819.84
2022-08-05T09:18:06.851Z,96807.22
2022-08-05T09:20:37.658Z,96835.13
2022-08-05T09:23:09.894Z,96846.00
2022-08-05T09:26:03.068Z,96820.53
2022-08-05T09:28:32.092Z,96833.03
2022-08-05T09:31:18.178Z,96825.16
2022-08-05T09:34:03.367Z,96829.75
2022-08-05T09:36:56.205Z,96844.69
2022-08-05T09:39:52.252Z,96847.09
2022-08-05T09:42:24.142Z,96840.38
2022-08-05T09:47:49.103Z,96835.78
2022-08-05T09:50:37.594Z,96828.97
2022-08-05T09:53:15.754Z,96827.13
2022-08-05T09:56:03.699Z,96821.47
2022-08-05T09:58:32.212Z,96861.63
2022-08-05T10:01:13.586Z,96824.06
2022-08-05T10:04:02.091Z,96837.38
2022-08-05T10:06:31.145Z,96846.28
2022-08-05T10:09:25.150Z,96843.81
2022-08-05T10:11:55.277Z,96849.28
2022-08-05T10:14:32.241Z,96837.34
2022-08-05T10:17:19.952Z,96840.50
2022-08-05T10:20:03.778Z,96843.13
2022-08-05T10:22:37.962Z,96854.56
2022-08-05T10:25:09.992Z,96836.97
2022-08-05T10:28:12.791Z,96845.88
2022-08-05T10:32:48.395Z,96855.28
2022-08-05T10:33:14.903Z,96863.84
2022-08-05T10:35:44.081Z,96850.59
2022-08-05T10:38:11.827Z,96833.56
2022-08-05T10:40:51.456Z,96852.88
2022-08-05T10:43:47.503Z,96849.09
2022-08-05T10:46:16.821Z,96876.53
2022-08-05T10:48:58.107Z,96868.06
2022-08-05T10:51:28.547Z,96875.72
2022-08-05T10:54:01.085Z,96860.22
2022-08-05T10:56:47.464Z,96873.13
2022-08-05T11:00:04.323Z,96886.25
2022-08-05T11:02:14.532Z,96849.09
2022-08-05T11:05:00.228Z,96877.09
2022-08-05T11:07:32.959Z,96872.59
2022-08-05T11:10:22.432Z,96870.50
2022-08-05T11:12:55.631Z,96871.75
2022-08-05T11:15:23.457Z,96859.84
2022-08-05T11:18:30.164Z,96864.03
2022-08-05T11:20:59.231Z,96904.59
2022-08-05T11:24:03.166Z,96859.31
2022-08-05T11:26:28.904Z,96876.88
2022-08-05T11:29:12.123Z,96883.78
2022-08-05T11:31:57.148Z,96877.22
2022-08-05T11:34:51.805Z,96837.91
2022-08-05T11:38:30.027Z,96864.06
2022-08-05T11:41:14.169Z,96853.66
2022-08-05T11:44:02.809Z,96866.56
2022-08-05T11:46:37.801Z,96869.28
2022-08-05T11:49:24.772Z,96836.44
2022-08-05T11:51:51.961Z,96854.72
2022-08-05T11:54:33.457Z,96867.09
2022-08-05T11:57:01.731Z,96854.19
2022-08-05T11:59:49.782Z,96849.56
2022-08-05T12:02:30.475Z,96870.69
2022-08-05T12:05:00.064Z,96856.91
2022-08-05T12:08:02.699Z,96873.22
2022-08-05T12:10:13.888Z,96853.28
2022-08-05T12:12:55.387Z,96854.84
2022-08-05T12:15:38.291Z,96856.66
2022-08-05T12:18:11.001Z,96872.94
2022-08-05T12:20:39.259Z,96877.47
2022-08-05T12:23:10.233Z,96852.03
2022-08-05T12:26:09.405Z,96862.50
2022-08-05T12:28:39.177Z,96854.72
2022-08-05T12:31:05.966Z,96861.41
2022-08-05T12:33:37.194Z,96846.81
2022-08-05T12:36:07.908Z,96857.13
2022-08-05T12:38:39.652Z,96855.22
2022-08-05T12:41:13.345Z,96845.38
2022-08-05T12:43:55.353Z,96844.72
2022-08-05T12:46:33.035Z,96840.25
2022-08-05T12:49:19.964Z,96838.25
2022-08-05T12:52:13.860Z,96819.81
2022-08-05T12:54:46.526Z,96839.53
2022-08-05T12:57:16.435Z,96823.22
2022-08-05T13:01:58.670Z,96824.06
2022-08-05T13:02:35.977Z,96819.25
2022-08-05T13:05:05.907Z,96797.66
2022-08-05T13:07:57.572Z,96828.84
2022-08-05T13:10:19.414Z,96829.84
2022-08-05T13:12:57.175Z,96793.19
2022-08-05T13:15:41.294Z,96812.28
2022-08-05T13:18:19.857Z,96770.88
2022-08-05T13:20:47.605Z,96786.84
2022-08-05T13:23:18.016Z,96792.88
2022-08-05T13:25:52.837Z,96811.84
2022-08-05T13:28:27.194Z,96815.97
2022-08-05T13:30:53.933Z,96796.91
2022-08-05T13:34:21.274Z,96782.47
2022-08-05T13:36:10.692Z,96765.72
2022-08-05T13:38:41.904Z,96782.56
2022-08-05T13:41:10.548Z,96797.28
2022-08-05T13:43:45.034Z,96774.72
2022-08-05T13:46:50.544Z,96771.72
2022-08-05T13:49:12.040Z,96763.47
2022-08-05T13:51:41.078Z,96779.47
2022-08-05T13:54:13.238Z,96776.34
2022-08-05T13:56:45.217Z,96755.69
2022-08-05T13:59:24.098Z,96753.91
2022-08-05T14:01:57.633Z,96751.22
2022-08-05T14:04:29.173Z,96737.81
2022-08-05T14:06:58.744Z,96758.34
2022-08-05T14:09:45.947Z,96741.41
2022-08-05T14:12:18.042Z,96747.75
2022-08-05T14:14:59.122Z,96733.31
2022-08-05T14:17:25.832Z,96746.72
2022-08-05T14:19:59.665Z,96745.06
2022-08-05T14:22:30.536Z,96776.69
2022-08-05T14:25:06.111Z,96748.44
2022-08-05T14:27:47.357Z,96739.16
2022-08-05T14:30:20.478Z,96735.13
2022-08-05T14:32:48.081Z,96755.22
2022-08-05T14:35:14.772Z,96721.94
2022-08-05T14:37:48.184Z,96750.63
2022-08-05T14:40:17.094Z,96734.69
2022-08-05T14:42:44.003Z,96733.34
2022-08-05T14:45:10.757Z,96730.44
2022-08-05T14:48:04.175Z,96739.00
2022-08-05T14:50:25.436Z,96726.47
2022-08-05T14:52:56.968Z,96721.44
2022-08-05T14:55:26.246Z,96741.94
2022-08-05T14:58:10.897Z,96712.91
2022-08-05T15:00:38.733Z,96727.41
2022-08-05T15:03:05.569Z,96721.75
2022-08-05T15:06:07.656Z,96732.38
2022-08-05T15:08:57.972Z,96736.84
2022-08-05T15:11:09.609Z,96710.16
2022-08-05T15:13:45.945Z,96715.91
2022-08-05T15:16:16.235Z,96710.00
2022-08-05T15:18:43.774Z,96717.38
2022-08-05T15:21:14.008Z,96717.59
2022-08-05T15:23:40.835Z,96701.75
2022-08-05T15:26:07.543Z,96701.19
2022-08-05T15:28:35.420Z,96710.00
2022-08-05T15:31:09.846Z,96719.00
2022-08-05T15:34:18.536Z,96718.44
2022-08-05T15:36:24.446Z,96727.22
2022-08-05T15:41:00.149Z,96735.91
2022-08-05T15:41:58.502Z,96713.94
2022-08-05T15:44:27.403Z,96739.03
2022-08-05T15:46:55.585Z,96746.47
2022-08-05T15:49:40.859Z,96764.91
2022-08-05T15:52:16.157Z,96736.56
2022-08-05T15:54:55.685Z,96739.56
2022-08-05T15:57:23.487Z,96756.06
2022-08-05T15:59:54.016Z,96765.06
2022-08-05T16:02:27.714Z,96743.31
2022-08-05T16:04:55.459Z,96772.25
2022-08-05T16:07:22.929Z,96759.25
2022-08-05T16:09:49.774Z,96770.03
2022-08-05T16:12:16.717Z,96747.81
2022-08-05T16:14:46.527Z,96765.78
2022-08-05T16:17:13.358Z,96744.63
2022-08-05T16:20:04.987Z,96758.19
2022-08-05T16:22:27.856Z,96763.16
2022-08-05T16:25:07.963Z,96761.84
2022-08-05T16:27:59.721Z,96756.03
2022-08-05T16:30:26.728Z,96751.59
2022-08-05T16:32:55.718Z,96772.84
2022-08-05T16:35:28.531Z,96757.81
2022-08-05T16:38:02.468Z,96748.28
2022-08-05T16:40:51.798Z,96760.09
2022-08-05T16:43:23.739Z,96749.38
2022-08-05T16:46:04.278Z,96760.94
2022-08-05T16:48:39.599Z,96752.94
2022-08-05T16:51:09.669Z,96758.75
2022-08-05T16:54:05.422Z,96754.22
2022-08-05T16:56:27.847Z,96743.44
2022-08-05T16:58:54.921Z,96745.88
2022-08-05T17:01:21.999Z,96769.22
2022-08-05T17:03:50.953Z,96754.19
2022-08-05T17:06:17.880Z,96764.22
2022-08-05T17:08:52.702Z,96782.22
2022-08-05T17:11:25.527Z,96773.56
2022-08-05T17:14:00.279Z,96775.44
2022-08-05T17:16:36.400Z,96745.97
2022-08-05T17:19:07.582Z,96771.25
2022-08-05T17:21:37.177Z,96758.97
2022-08-05T17:24:19.830Z,96758.88
2022-08-05T17:26:52.318Z,96787.59
2022-08-05T17:29:22.345Z,96756.72
2022-08-05T17:31:58.665Z,96769.44
2022-08-05T17:34:29.927Z,96788.56
2022-08-05T17:37:00.073Z,96784.81
2022-08-05T17:39:33.574Z,96780.69
2022-08-05T17:42:18.621Z,96771.09
2022-08-05T17:44:51.230Z,96759.13
2022-08-05T17:47:22.423Z,96775.31
2022-08-05T17:50:03.494Z,96762.97
2022-08-05T17:52:53.037Z,96767.25
2022-08-05T17:55:34.088Z,96779.34
2022-08-05T17:58:01.468Z,96762.47
2022-08-05T18:00:29.279Z,96776.72
2022-08-05T18:02:56.454Z,96766.47
2022-08-05T18:05:23.801Z,96774.50
2022-08-05T18:07:54.908Z,96768.88
2022-08-05T18:10:23.617Z,96789.09
2022-08-05T18:12:50.374Z,96782.59
2022-08-05T18:15:17.318Z,96784.72
2022-08-05T18:17:59.194Z,96786.00
2022-08-05T18:20:31.565Z,96785.03
2022-08-05T18:23:00.654Z,96783.91
2022-08-05T18:25:35.872Z,96771.38
2022-08-05T18:28:05.101Z,96799.03
2022-08-05T18:30:32.351Z,96788.81
2022-08-05T18:33:00.388Z,96779.41
2022-08-05T18:36:00.773Z,96781.91
2022-08-05T18:38:19.449Z,96791.78
2022-08-05T18:41:56.736Z,96795.38
2022-08-05T18:43:42.845Z,96793.50
2022-08-05T18:46:20.001Z,96806.16
2022-08-05T18:48:52.162Z,96784.50
2022-08-05T18:52:04.745Z,96812.97
2022-08-05T18:54:09.541Z,96799.16
2022-08-05T18:56:36.203Z,96812.59
2022-08-05T18:59:17.006Z,96792.47
2022-08-05T19:01:57.269Z,96826.81
2022-08-05T19:04:25.512Z,96811.44
2022-08-05T19:06:53.612Z,96808.28
2022-08-05T19:09:21.169Z,96839.09
2022-08-05T19:12:00.100Z,96824.09
2022-08-05T19:14:44.932Z,96815.03
2022-08-05T19:17:16.540Z,96828.84
2022-08-05T19:19:44.174Z,96840.66
2022-08-05T19:22:17.301Z,96843.81
2022-08-05T19:24:54.325Z,96845.38
2022-08-05T19:27:30.276Z,96823.66
2022-08-05T19:29:57.366Z,96823.28
2022-08-05T19:32:26.118Z,96823.66
2022-08-05T19:34:55.670Z,96852.44
2022-08-05T19:37:35.182Z,96829.97
2022-08-05T19:40:10.943Z,96844.56
2022-08-05T19:42:37.757Z,96827.19
2022-08-05T19:45:06.941Z,96829.94
2022-08-05T19:47:34.960Z,96848.88
2022-08-05T19:50:04.864Z,96871.34
2022-08-05T19:52:34.245Z,96837.88
2022-08-05T19:55:07.169Z,96846.94
2022-08-05T19:58:07.023Z,96850.13
2022-08-05T20:00:36.248Z,96861.97
2022-08-05T20:03:08.486Z,96863.94
2022-08-05T20:05:42.968Z,96873.00
2022-08-05T20:08:10.228Z,96889.16
2022-08-05T20:10:36.835Z,96879.72
2022-08-05T20:13:03.616Z,96895.88
2022-08-05T20:15:50.864Z,96876.13
2022-08-05T20:18:32.749Z,96902.16
2022-08-05T20:21:00.853Z,96919.94
2022-08-05T20:23:39.182Z,96908.47
2022-08-05T20:26:16.223Z,96893.50
2022-08-05T20:28:45.165Z,96903.34
2022-08-05T20:31:11.866Z,96915.59
2022-08-05T20:33:38.495Z,96898.22
2022-08-05T20:36:10.055Z,96946.75
2022-08-05T20:38:36.994Z,96909.25
2022-08-05T20:41:05.265Z,96926.22
2022-08-05T20:43:58.712Z,96941.63
2022-08-05T20:46:24.925Z,96922.31
2022-08-05T20:48:51.860Z,96951.88
2022-08-05T20:51:19.066Z,96937.28
2022-08-05T20:53:56.442Z,96942.38
2022-08-05T20:56:29.886Z,96936.00
2022-08-05T20:58:59.934Z,96934.38
2022-08-05T21:01:38.835Z,96924.84
2022-08-05T21:04:05.734Z,96958.31
2022-08-05T21:06:33.255Z,96964.09
2022-08-05T21:09:00.330Z,96983.63
2022-08-05T21:12:07.354Z,97000.75
2022-08-05T21:14:13.608Z,97046.69
2022-08-05T21:16:41.079Z,97040.59
2022-08-05T21:19:07.676Z,97060.09
2022-08-05T21:21:43.871Z,97095.81
2022-08-05T21:24:16.994Z,97127.09
2022-08-05T21:26:58.447Z,97123.72
2022-08-05T21:29:26.627Z,97129.81
2022-08-05T21:31:58.102Z,97145.59
2022-08-05T21:34:24.732Z,97172.22
2022-08-05T21:36:51.754Z,97160.28
2022-08-05T21:39:26.603Z,97180.03
2022-08-05T21:42:01.954Z,97176.34
2022-08-05T21:44:30.047Z,97153.28
2022-08-05T21:46:58.049Z,97175.81
2022-08-05T21:49:58.722Z,97167.22
2022-08-05T21:52:21.395Z,97168.16
2022-08-05T21:54:51.177Z,97173.22
2022-08-05T21:57:31.674Z,97186.44
2022-08-05T22:00:11.136Z,97177.47
2022-08-05T22:02:38.281Z,97207.16
2022-08-05T22:05:05.475Z,97203.47
2022-08-05T22:07:39.399Z,97204.09
2022-08-05T22:10:26.573Z,97221.41
2022-08-05T22:12:57.253Z,97204.34
2022-08-05T22:16:02.653Z,97207.91
2022-08-05T22:18:11.136Z,97192.53
2022-08-05T22:20:39.042Z,97196.75
2022-08-05T22:23:17.009Z,97187.38
2022-08-05T22:26:09.996Z,97184.63
2022-08-05T22:28:33.710Z,97183.34
2022-08-05T22:31:05.274Z,97185.34
2022-08-05T22:33:56.890Z,97201.16
2022-08-05T22:36:19.088Z,97200.38
2022-08-05T22:38:50.471Z,97204.91
2022-08-05T22:41:26.291Z,97226.53
2022-08-05T22:44:05.114Z,97207.56
2022-08-05T22:46:31.930Z,97192.72
2022-08-05T22:48:59.302Z,97216.66
2022-08-05T22:52:02.573Z,97186.34
2022-08-05T22:54:13.062Z,97210.91
2022-08-05T22:56:40.711Z,97228.97
2022-08-05T22:59:45.304Z,97228.41
2022-08-05T23:02:04.369Z,97197.25
2022-08-05T23:04:32.924Z,97214.38
2022-08-05T23:06:59.540Z,97198.09
2022-08-05T23:09:27.652Z,97184.50
2022-08-05T23:12:12.924Z,97203.84
2022-08-05T23:14:39.540Z,97216.22
2022-08-05T23:17:10.415Z,97216.47
2022-08-05T23:19:46.625Z,97218.78
2022-08-05T23:22:19.270Z,97208.09
2022-08-05T23:24:53.780Z,97246.72
2022-08-05T23:27:20.792Z,97246.78
2022-08-05T23:29:50.657Z,97230.38
2022-08-05T23:32:17.549Z,97236.38
2022-08-05T23:34:49.888Z,97232.75
2022-08-05T23:37:17.824Z,97262.94
2022-08-05T23:39:53.660Z,97280.19
2022-08-05T23:42:23.483Z,97285.31
2022-08-05T23:44:56.256Z,97295.31
2022-08-05T23:47:25.145Z,97309.56
2022-08-05T23:49:52.189Z,97292.78
2022-08-05T23:52:25.267Z,97292.50
2022-08-05T23:54:53.372Z,97306.13
2022-08-05T23:57:20.054Z,97310.28
